createdAt,value
2022-10-31T00:01:11.414Z,6.20
2022-10-31T00:03:38.505Z,6.78
2022-10-31T00:06:05.604Z,6.78
2022-10-31T00:08:32.659Z,6.60
2022-10-31T00:10:59.716Z,6.85
2022-10-31T00:13:26.792Z,5.88
2022-10-31T00:15:53.981Z,5.90
2022-10-31T00:18:21.119Z,6.60
2022-10-31T00:20:48.188Z,6.28
2022-10-31T00:23:15.271Z,5.68
2022-10-31T00:25:42.329Z,6.35
2022-10-31T00:28:11.121Z,7.25
2022-10-31T00:30:38.224Z,6.97
2022-10-31T00:33:06.232Z,8.13
2022-10-31T00:35:33.527Z,7.50
2022-10-31T00:38:00.885Z,7.47
2022-10-31T00:40:27.979Z,7.25
2022-10-31T00:42:55.179Z,7.75
2022-10-31T00:45:22.279Z,7.38
2022-10-31T00:47:49.442Z,7.35
2022-10-31T00:50:16.550Z,6.88
2022-10-31T00:52:43.612Z,7.88
2022-10-31T00:55:10.711Z,7.32
2022-10-31T00:57:37.757Z,8.60
2022-10-31T01:00:05.227Z,11.80
2022-10-31T01:02:32.435Z,9.07
2022-10-31T01:04:59.639Z,6.75
2022-10-31T01:07:26.715Z,5.72
2022-10-31T01:09:53.778Z,6.40
2022-10-31T01:12:20.861Z,7.13
2022-10-31T01:14:47.935Z,6.05
2022-10-31T01:17:15.184Z,6.20
2022-10-31T01:19:42.263Z,5.57
2022-10-31T01:22:09.341Z,5.70
2022-10-31T01:24:36.408Z,5.00
2022-10-31T01:27:03.979Z,5.82
2022-10-31T01:29:31.042Z,5.50
2022-10-31T01:31:58.144Z,10.30
2022-10-31T01:34:25.221Z,7.20
2022-10-31T01:36:52.528Z,6.63
2022-10-31T01:39:20.348Z,6.80
2022-10-31T01:41:49.002Z,5.35
2022-10-31T01:44:16.097Z,4.68
2022-10-31T01:47:00.598Z,4.32
2022-10-31T01:49:41.044Z,4.32
2022-10-31T01:52:14.083Z,4.40
2022-10-31T01:54:47.381Z,4.55
2022-10-31T01:57:15.534Z,5.05
2022-10-31T01:59:45.818Z,4.55
2022-10-31T02:02:13.830Z,4.70
2022-10-31T02:04:41.388Z,4.28
2022-10-31T02:07:12.222Z,4.93
2022-10-31T02:09:39.741Z,4.97
2022-10-31T02:12:07.453Z,5.25
2022-10-31T02:14:35.055Z,5.32
2022-10-31T02:17:02.325Z,5.43
2022-10-31T02:19:37.562Z,5.82
2022-10-31T02:22:11.505Z,5.85
2022-10-31T02:24:56.808Z,5.95
2022-10-31T02:27:26.597Z,6.07
2022-10-31T02:30:05.485Z,5.40
2022-10-31T02:32:47.408Z,6.00
2022-10-31T02:35:33.568Z,5.65
2022-10-31T02:38:09.777Z,6.20
2022-10-31T02:40:46.959Z,5.80
2022-10-31T02:45:58.330Z,4.60
2022-10-31T02:48:28.729Z,4.38
2022-10-31T02:51:01.321Z,4.85
2022-10-31T02:53:28.375Z,4.40
2022-10-31T02:55:55.418Z,5.00
2022-10-31T02:58:24.113Z,5.10
2022-10-31T03:01:06.377Z,4.63
2022-10-31T03:03:52.386Z,4.70
2022-10-31T03:06:25.245Z,4.65
2022-10-31T03:08:56.719Z,5.20
2022-10-31T03:11:25.732Z,4.68
2022-10-31T03:13:58.736Z,4.90
2022-10-31T03:16:37.826Z,4.82
2022-10-31T03:19:10.395Z,4.85
2022-10-31T03:21:40.924Z,5.15
2022-10-31T03:24:08.841Z,4.43
2022-10-31T03:26:40.136Z,4.82
2022-10-31T03:29:08.101Z,5.03
2022-10-31T03:31:40.573Z,4.10
2022-10-31T03:34:09.206Z,4.85
2022-10-31T03:36:37.661Z,4.50
2022-10-31T03:39:06.175Z,4.88
2022-10-31T03:41:35.862Z,5.28
2022-10-31T03:44:05.342Z,5.13
2022-10-31T03:46:32.449Z,5.10
2022-10-31T03:49:00.373Z,5.07
2022-10-31T03:51:31.758Z,6.82
2022-10-31T03:54:05.824Z,5.57
2022-10-31T03:56:41.873Z,5.78
2022-10-31T03:59:27.669Z,5.78
2022-10-31T04:01:57.660Z,5.10
2022-10-31T04:04:25.465Z,5.75
2022-10-31T04:06:54.028Z,5.55
2022-10-31T04:09:21.833Z,5.57
2022-10-31T04:11:50.940Z,5.35
2022-10-31T04:14:18.033Z,5.13
2022-10-31T04:16:45.857Z,5.07
2022-10-31T04:19:13.555Z,4.63
2022-10-31T04:21:40.636Z,5.20
2022-10-31T04:24:07.870Z,5.07
2022-10-31T04:26:34.931Z,5.28
2022-10-31T04:29:02.191Z,4.95
2022-10-31T04:31:29.306Z,5.18
2022-10-31T04:33:56.443Z,4.70
2022-10-31T04:36:23.557Z,4.47
2022-10-31T04:38:50.601Z,4.47
2022-10-31T04:41:17.706Z,5.60
2022-10-31T04:43:44.757Z,5.22
2022-10-31T04:46:11.821Z,4.60
2022-10-31T04:48:38.953Z,5.60
2022-10-31T04:51:06.111Z,5.28
2022-10-31T04:53:33.305Z,5.65
2022-10-31T04:56:01.545Z,5.97
2022-10-31T04:58:29.437Z,5.18
2022-10-31T05:00:57.097Z,5.57
2022-10-31T05:03:24.282Z,5.10
2022-10-31T05:05:51.450Z,5.13
2022-10-31T05:08:18.547Z,4.82
2022-10-31T05:10:45.740Z,4.60
2022-10-31T05:13:12.933Z,4.43
2022-10-31T05:15:40.056Z,4.15
2022-10-31T05:18:07.193Z,4.22
2022-10-31T05:20:34.357Z,5.20
2022-10-31T05:23:01.518Z,4.65
2022-10-31T05:25:29.527Z,4.40
2022-10-31T05:27:57.516Z,4.68
2022-10-31T05:30:26.614Z,6.15
2022-10-31T05:32:53.857Z,44.15
2022-10-31T05:35:23.660Z,44.33
2022-10-31T05:37:50.790Z,31.38
2022-10-31T05:40:18.788Z,19.92
2022-10-31T05:42:45.915Z,22.63
2022-10-31T05:45:17.127Z,17.10
2022-10-31T05:47:51.658Z,27.33
2022-10-31T05:50:18.905Z,30.80
2022-10-31T05:52:46.148Z,22.15
2022-10-31T05:55:13.233Z,17.38
2022-10-31T05:57:40.419Z,13.43
2022-10-31T06:00:07.772Z,9.27
2022-10-31T06:02:35.512Z,10.02
2022-10-31T06:05:03.057Z,7.25
2022-10-31T06:07:33.999Z,5.50
2022-10-31T06:10:01.649Z,5.25
2022-10-31T06:12:30.707Z,5.90
2022-10-31T06:14:57.945Z,6.00
2022-10-31T06:17:25.065Z,6.07
2022-10-31T06:19:52.133Z,5.80
2022-10-31T06:22:19.256Z,6.32
2022-10-31T06:24:46.384Z,6.63
2022-10-31T06:27:13.496Z,6.07
2022-10-31T06:29:40.577Z,6.20
2022-10-31T06:32:07.659Z,6.80
2022-10-31T06:34:34.729Z,6.00
2022-10-31T06:37:01.783Z,5.78
2022-10-31T06:39:29.453Z,4.93
2022-10-31T06:41:56.590Z,4.60
2022-10-31T06:44:23.649Z,5.85
2022-10-31T06:46:51.066Z,4.88
2022-10-31T06:49:18.137Z,5.13
2022-10-31T06:51:45.316Z,5.70
2022-10-31T06:54:12.397Z,8.43
2022-10-31T06:56:39.517Z,4.90
2022-10-31T06:59:06.764Z,5.85
2022-10-31T07:01:33.995Z,6.30
2022-10-31T07:04:01.134Z,5.90
2022-10-31T07:06:28.209Z,4.82
2022-10-31T07:08:55.284Z,5.95
2022-10-31T07:11:22.334Z,6.35
2022-10-31T07:13:49.411Z,6.00
2022-10-31T07:16:16.761Z,7.60
2022-10-31T07:18:43.829Z,6.75
2022-10-31T07:21:10.952Z,5.80
2022-10-31T07:23:38.019Z,6.45
2022-10-31T07:26:05.161Z,7.40
2022-10-31T07:28:32.239Z,6.00
2022-10-31T07:30:59.438Z,6.68
2022-10-31T07:33:27.293Z,7.10
2022-10-31T07:35:54.987Z,23.63
2022-10-31T07:38:22.220Z,22.88
2022-10-31T07:40:53.692Z,15.38
2022-10-31T07:43:20.848Z,12.18
2022-10-31T07:45:52.100Z,12.80
2022-10-31T07:48:19.168Z,6.15
2022-10-31T07:50:47.077Z,14.70
2022-10-31T07:53:14.856Z,14.70
2022-10-31T07:55:42.085Z,8.48
2022-10-31T07:58:13.773Z,9.05
2022-10-31T08:00:42.018Z,9.10
2022-10-31T08:03:16.660Z,11.10
2022-10-31T08:05:45.731Z,11.25
2022-10-31T08:08:13.289Z,12.52
2022-10-31T08:10:41.433Z,11.00
2022-10-31T08:13:09.708Z,12.43
2022-10-31T08:15:40.006Z,12.43
2022-10-31T08:18:07.456Z,8.32
2022-10-31T08:20:34.542Z,12.15
2022-10-31T08:23:02.515Z,11.45
2022-10-31T08:25:33.898Z,9.88
2022-10-31T08:28:04.955Z,9.73
2022-10-31T08:30:33.531Z,8.60
2022-10-31T08:33:00.866Z,7.60
2022-10-31T08:35:28.023Z,7.88
2022-10-31T08:37:56.181Z,7.43
2022-10-31T08:40:23.843Z,9.00
2022-10-31T08:42:58.550Z,8.25
2022-10-31T08:45:26.020Z,6.88
2022-10-31T08:47:53.448Z,8.57
2022-10-31T08:50:20.828Z,8.15
2022-10-31T08:53:04.184Z,7.20
2022-10-31T08:55:32.123Z,8.07
2022-10-31T08:58:00.379Z,7.05
2022-10-31T09:00:27.755Z,6.53
2022-10-31T09:02:58.727Z,7.38
2022-10-31T09:05:26.101Z,7.30
2022-10-31T09:07:57.232Z,6.78
2022-10-31T09:10:24.534Z,5.65
2022-10-31T09:13:02.154Z,6.00
2022-10-31T09:15:30.021Z,5.38
2022-10-31T09:17:57.718Z,4.82
2022-10-31T09:20:25.009Z,5.30
2022-10-31T09:22:59.021Z,5.13
2022-10-31T09:25:26.220Z,5.85
2022-10-31T09:27:57.714Z,5.00
2022-10-31T09:30:25.599Z,5.60
2022-10-31T09:32:59.730Z,5.15
2022-10-31T09:35:27.026Z,3.72
2022-10-31T09:38:01.581Z,4.10
2022-10-31T09:40:34.407Z,4.30
2022-10-31T09:43:16.000Z,4.30
2022-10-31T09:45:56.199Z,4.20
2022-10-31T09:48:23.263Z,3.80
2022-10-31T09:50:55.493Z,3.92
2022-10-31T09:53:26.291Z,3.55
2022-10-31T09:55:53.556Z,3.63
2022-10-31T09:58:22.164Z,3.80
2022-10-31T10:00:49.790Z,4.18
2022-10-31T10:03:33.471Z,4.22
2022-10-31T10:06:00.529Z,3.50
2022-10-31T10:08:29.674Z,4.18
2022-10-31T10:11:15.703Z,4.07
2022-10-31T10:13:48.570Z,3.83
2022-10-31T10:16:38.666Z,3.55
2022-10-31T10:19:08.609Z,3.40
2022-10-31T10:21:47.543Z,3.47
2022-10-31T10:24:22.025Z,3.10
2022-10-31T10:26:54.952Z,3.25
2022-10-31T10:29:43.950Z,4.18
2022-10-31T10:32:14.139Z,3.85
2022-10-31T10:34:52.523Z,3.05
2022-10-31T10:37:25.537Z,3.40
2022-10-31T10:39:55.694Z,3.10
2022-10-31T10:42:42.620Z,3.40
2022-10-31T10:45:36.034Z,3.53
2022-10-31T10:48:23.377Z,3.20
2022-10-31T10:50:51.684Z,3.22
2022-10-31T10:53:32.832Z,3.08
2022-10-31T10:56:06.362Z,3.47
2022-10-31T10:58:33.507Z,3.97
2022-10-31T11:01:00.690Z,3.58
2022-10-31T11:03:27.877Z,3.80
2022-10-31T11:05:55.947Z,3.47
2022-10-31T11:08:29.354Z,3.47
2022-10-31T11:10:59.696Z,4.00
2022-10-31T11:13:36.357Z,5.25
2022-10-31T11:16:23.023Z,4.88
2022-10-31T11:19:05.977Z,4.03
2022-10-31T11:21:35.596Z,3.92
2022-10-31T11:24:24.617Z,3.90
2022-10-31T11:27:13.520Z,4.10
2022-10-31T11:29:42.926Z,4.10
2022-10-31T11:32:19.169Z,4.53
2022-10-31T11:34:56.580Z,4.97
2022-10-31T11:37:37.314Z,4.03
2022-10-31T11:40:08.461Z,4.57
2022-10-31T11:42:42.859Z,4.20
2022-10-31T11:45:18.006Z,4.20
2022-10-31T11:47:48.322Z,4.13
2022-10-31T11:50:21.341Z,4.30
2022-10-31T11:52:49.597Z,4.45
2022-10-31T11:55:19.732Z,5.40
2022-10-31T11:57:48.007Z,5.20
2022-10-31T12:00:24.078Z,4.22
2022-10-31T12:02:51.712Z,4.32
2022-10-31T12:05:24.768Z,4.38
2022-10-31T12:07:52.031Z,5.10
2022-10-31T12:10:21.079Z,3.97
2022-10-31T12:12:54.074Z,5.43
2022-10-31T12:15:29.219Z,3.75
2022-10-31T12:18:14.848Z,3.95
2022-10-31T12:20:54.169Z,5.20
2022-10-31T12:23:27.110Z,4.60
2022-10-31T12:25:54.214Z,4.93
2022-10-31T12:28:24.545Z,4.18
2022-10-31T12:30:51.616Z,4.95
2022-10-31T12:33:30.676Z,5.00
2022-10-31T12:35:59.280Z,5.22
2022-10-31T12:38:29.391Z,5.10
2022-10-31T12:41:02.567Z,5.03
2022-10-31T12:43:38.529Z,4.53
2022-10-31T12:46:09.479Z,4.82
2022-10-31T12:48:51.637Z,4.63
2022-10-31T12:51:34.823Z,4.40
2022-10-31T12:54:25.237Z,4.80
2022-10-31T12:57:02.037Z,4.30
2022-10-31T12:59:29.418Z,5.20
2022-10-31T13:02:01.038Z,6.35
2022-10-31T13:04:37.452Z,4.78
2022-10-31T13:07:09.182Z,4.35
2022-10-31T13:09:40.463Z,4.68
2022-10-31T13:12:12.639Z,5.10
2022-10-31T13:15:01.124Z,4.35
2022-10-31T13:17:40.683Z,4.85
2022-10-31T13:20:17.413Z,8.10
2022-10-31T13:22:46.291Z,7.13
2022-10-31T13:25:18.617Z,5.50
2022-10-31T13:28:04.178Z,6.65
2022-10-31T13:30:38.249Z,6.95
2022-10-31T13:33:10.601Z,7.80
2022-10-31T13:35:40.769Z,6.85
2022-10-31T13:38:20.977Z,5.90
2022-10-31T13:41:00.045Z,5.55
2022-10-31T13:43:27.178Z,5.55
2022-10-31T13:45:55.368Z,6.63
2022-10-31T13:48:40.185Z,5.97
2022-10-31T13:51:08.970Z,8.40
2022-10-31T13:53:40.516Z,7.25
2022-10-31T13:56:10.525Z,6.10
2022-10-31T13:58:38.060Z,6.30
2022-10-31T14:01:17.573Z,8.38
2022-10-31T14:04:05.008Z,10.93
2022-10-31T14:06:42.721Z,13.10
2022-10-31T14:09:20.604Z,17.83
2022-10-31T14:11:48.887Z,17.98
2022-10-31T14:14:16.594Z,16.48
2022-10-31T14:16:44.890Z,12.65
2022-10-31T14:19:22.237Z,8.35
2022-10-31T14:21:49.826Z,6.38
2022-10-31T14:24:26.088Z,5.82
2022-10-31T14:27:00.248Z,5.10
2022-10-31T14:29:32.398Z,7.05
2022-10-31T14:32:15.491Z,6.10
2022-10-31T14:34:43.716Z,6.57
2022-10-31T14:37:29.511Z,7.28
2022-10-31T14:39:56.615Z,7.55
2022-10-31T14:42:42.510Z,7.32
2022-10-31T14:45:18.957Z,6.55
2022-10-31T14:47:55.020Z,7.00
2022-10-31T14:51:10.459Z,6.85
2022-10-31T14:53:58.843Z,7.40
2022-10-31T14:56:30.570Z,6.95
2022-10-31T14:58:59.523Z,14.80
2022-10-31T15:01:31.335Z,14.55
2022-10-31T15:04:23.200Z,10.40
2022-10-31T15:06:54.019Z,7.18
2022-10-31T15:09:23.856Z,8.27
2022-10-31T15:11:51.089Z,8.43
2022-10-31T15:14:26.258Z,9.02
2022-10-31T15:16:53.427Z,8.25
2022-10-31T15:19:28.164Z,8.75
2022-10-31T15:21:56.551Z,9.02
2022-10-31T15:24:25.254Z,9.38
2022-10-31T15:26:53.722Z,8.82
2022-10-31T15:29:25.201Z,7.60
2022-10-31T15:31:53.274Z,8.15
2022-10-31T15:34:26.304Z,9.10
2022-10-31T15:36:53.549Z,9.40
2022-10-31T15:39:20.928Z,9.75
2022-10-31T15:41:54.796Z,9.05
2022-10-31T15:44:22.312Z,8.75
2022-10-31T15:47:01.381Z,7.78
2022-10-31T15:49:31.268Z,8.90
2022-10-31T15:52:00.856Z,9.20
2022-10-31T15:54:28.339Z,10.63
2022-10-31T15:56:55.496Z,10.02
2022-10-31T15:59:24.641Z,9.93
2022-10-31T16:02:02.945Z,9.98
2022-10-31T16:04:30.628Z,10.23
2022-10-31T16:07:00.484Z,12.68
2022-10-31T16:09:27.599Z,12.02
2022-10-31T16:11:55.895Z,11.15
2022-10-31T16:14:27.676Z,9.23
2022-10-31T16:16:56.601Z,11.00
2022-10-31T16:19:23.748Z,10.25
2022-10-31T16:21:53.039Z,10.15
2022-10-31T16:24:49.517Z,9.20
2022-10-31T16:27:24.202Z,9.80
2022-10-31T16:29:51.306Z,12.98
2022-10-31T16:32:27.312Z,11.57
2022-10-31T16:35:00.375Z,9.73
2022-10-31T16:37:27.645Z,12.88
2022-10-31T16:39:54.729Z,11.52
2022-10-31T16:42:21.877Z,23.25
2022-10-31T16:44:49.735Z,22.95
2022-10-31T16:47:18.436Z,34.03
2022-10-31T16:49:47.921Z,28.70
2022-10-31T16:52:14.995Z,26.10
2022-10-31T16:54:42.092Z,22.83
2022-10-31T16:57:13.580Z,15.80
2022-10-31T16:59:40.709Z,23.00
2022-10-31T17:02:13.014Z,38.70
2022-10-31T17:04:40.215Z,23.95
2022-10-31T17:07:07.314Z,28.05
2022-10-31T17:09:34.403Z,29.38
2022-10-31T17:12:01.565Z,16.75
2022-10-31T17:14:28.720Z,17.65
2022-10-31T17:16:58.498Z,15.88
2022-10-31T17:19:25.590Z,16.48
2022-10-31T17:21:52.688Z,18.75
2022-10-31T17:24:19.748Z,16.23
2022-10-31T17:26:47.250Z,16.55
2022-10-31T17:29:15.130Z,18.88
2022-10-31T17:31:43.579Z,17.80
2022-10-31T17:34:10.709Z,16.13
2022-10-31T17:36:37.832Z,34.70
2022-10-31T17:39:07.391Z,31.85
2022-10-31T17:41:34.510Z,20.95
2022-10-31T17:44:02.226Z,18.20
2022-10-31T17:46:29.308Z,18.02
2022-10-31T17:48:56.408Z,21.17
2022-10-31T17:51:23.725Z,18.60
2022-10-31T17:53:50.870Z,21.05
2022-10-31T17:56:18.019Z,22.00
2022-10-31T17:58:45.123Z,24.00
2022-10-31T18:01:13.644Z,23.83
2022-10-31T18:03:41.122Z,25.55
2022-10-31T18:06:08.453Z,21.15
2022-10-31T18:08:36.431Z,28.33
2022-10-31T18:11:09.494Z,32.58
2022-10-31T18:13:37.152Z,18.23
2022-10-31T18:16:10.907Z,18.88
2022-10-31T18:18:38.202Z,18.60
2022-10-31T18:21:05.649Z,20.67
2022-10-31T18:23:32.830Z,16.65
2022-10-31T18:25:59.945Z,17.73
2022-10-31T18:28:27.043Z,17.23
2022-10-31T18:31:23.177Z,19.45
2022-10-31T18:33:53.345Z,18.98
2022-10-31T18:36:20.435Z,18.00
2022-10-31T18:38:47.699Z,19.92
2022-10-31T18:41:15.496Z,24.38
2022-10-31T18:43:42.888Z,20.17
2022-10-31T18:46:11.289Z,22.30
2022-10-31T18:48:38.584Z,22.83
2022-10-31T18:51:06.347Z,24.60
2022-10-31T18:53:33.710Z,24.70
2022-10-31T18:56:01.169Z,24.08
2022-10-31T18:58:28.902Z,23.40
2022-10-31T19:00:56.485Z,20.83
2022-10-31T19:03:26.183Z,23.38
2022-10-31T19:05:56.797Z,22.38
2022-10-31T19:08:23.985Z,21.35
2022-10-31T19:10:51.109Z,21.23
2022-10-31T19:13:18.256Z,21.70
2022-10-31T19:15:45.352Z,21.23
2022-10-31T19:18:12.437Z,27.40
2022-10-31T19:20:40.039Z,22.42
2022-10-31T19:23:07.429Z,19.27
2022-10-31T19:25:34.563Z,18.27
2022-10-31T19:28:01.902Z,17.05
2022-10-31T19:30:29.322Z,14.70
2022-10-31T19:32:56.431Z,14.48
2022-10-31T19:35:23.525Z,13.45
2022-10-31T19:37:50.646Z,14.57
2022-10-31T19:40:17.781Z,14.63
2022-10-31T19:42:44.889Z,15.02
2022-10-31T19:45:12.073Z,13.77
2022-10-31T19:47:39.204Z,13.65
2022-10-31T19:50:06.522Z,14.82
2022-10-31T19:52:34.736Z,12.57
2022-10-31T19:55:01.859Z,12.82
2022-10-31T19:57:48.946Z,12.45
2022-10-31T20:00:16.272Z,18.05
2022-10-31T20:02:43.357Z,14.45
2022-10-31T20:05:10.432Z,14.18
2022-10-31T20:07:37.529Z,14.20
2022-10-31T20:10:04.756Z,13.05
2022-10-31T20:12:33.738Z,12.60
2022-10-31T20:15:00.873Z,11.10
2022-10-31T20:17:27.963Z,10.43
2022-10-31T20:19:55.084Z,10.55
2022-10-31T20:22:22.332Z,10.40
2022-10-31T20:24:49.433Z,10.95
2022-10-31T20:27:16.499Z,10.48
2022-10-31T20:29:43.565Z,9.75
2022-10-31T20:32:10.688Z,12.82
2022-10-31T20:34:37.779Z,11.18
2022-10-31T20:37:04.909Z,11.80
2022-10-31T20:39:32.705Z,12.90
2022-10-31T20:41:59.802Z,12.27
2022-10-31T20:44:26.870Z,10.02
2022-10-31T20:46:53.960Z,8.63
2022-10-31T20:49:21.042Z,9.45
2022-10-31T20:51:48.171Z,8.77
2022-10-31T20:54:16.945Z,8.65
2022-10-31T20:56:44.140Z,9.02
2022-10-31T20:59:12.376Z,8.95
2022-10-31T21:01:39.697Z,10.13
2022-10-31T21:04:08.746Z,9.85
2022-10-31T21:06:35.844Z,9.57
2022-10-31T21:09:02.929Z,10.68
2022-10-31T21:11:30.023Z,11.50
2022-10-31T21:13:57.218Z,10.57
2022-10-31T21:16:28.659Z,13.75
2022-10-31T21:18:56.871Z,11.80
2022-10-31T21:21:29.007Z,10.50
2022-10-31T21:24:00.254Z,10.38
2022-10-31T21:26:27.938Z,12.15
2022-10-31T21:28:56.360Z,16.60
2022-10-31T21:31:23.945Z,13.77
2022-10-31T21:33:51.085Z,13.50
2022-10-31T21:36:18.196Z,15.43
2022-10-31T21:38:45.284Z,18.30
2022-10-31T21:41:13.820Z,14.20
2022-10-31T21:43:42.057Z,12.38
2022-10-31T21:46:13.385Z,11.00
2022-10-31T21:48:42.192Z,11.55
2022-10-31T21:51:10.331Z,10.30
2022-10-31T21:53:56.532Z,9.77
2022-10-31T21:56:23.995Z,9.90
2022-10-31T21:58:51.452Z,9.15
2022-10-31T22:01:18.954Z,8.73
2022-10-31T22:03:46.197Z,9.32
2022-10-31T22:06:13.714Z,9.35
2022-10-31T22:08:41.071Z,9.15
2022-10-31T22:11:18.240Z,8.90
2022-10-31T22:13:46.208Z,8.20
2022-10-31T22:16:14.272Z,8.48
2022-10-31T22:18:41.863Z,8.60
2022-10-31T22:21:14.063Z,8.63
2022-10-31T22:23:41.590Z,8.23
2022-10-31T22:26:14.093Z,9.23
2022-10-31T22:28:42.158Z,8.80
2022-10-31T22:33:42.921Z,8.43
2022-10-31T22:36:11.207Z,7.85
2022-10-31T22:38:40.117Z,7.70
2022-10-31T22:41:08.177Z,7.90
2022-10-31T22:43:35.427Z,7.38
2022-10-31T22:46:04.982Z,7.15
2022-10-31T22:48:33.305Z,7.30
2022-10-31T22:51:07.351Z,7.30
2022-10-31T22:53:35.444Z,7.03
2022-10-31T22:56:02.875Z,6.57
2022-10-31T22:58:30.623Z,7.53
2022-10-31T23:00:57.892Z,7.07
2022-10-31T23:03:25.404Z,6.95
2022-10-31T23:06:02.154Z,7.28
2022-10-31T23:08:29.895Z,7.82
2022-10-31T23:10:57.101Z,7.93
2022-10-31T23:13:42.957Z,6.80
2022-10-31T23:16:10.669Z,7.32
2022-10-31T23:18:49.554Z,6.95
2022-10-31T23:21:37.493Z,7.50
2022-10-31T23:24:04.762Z,7.30
2022-10-31T23:26:50.822Z,7.32
2022-10-31T23:29:17.885Z,8.27
2022-10-31T23:31:44.960Z,7.43
2022-10-31T23:34:12.079Z,7.18
2022-10-31T23:36:39.168Z,7.75
2022-10-31T23:39:06.276Z,7.25
2022-10-31T23:41:33.336Z,8.20
2022-10-31T23:44:00.466Z,6.47
2022-10-31T23:46:27.520Z,6.97
2022-10-31T23:48:54.645Z,7.30
2022-10-31T23:51:21.746Z,7.00
2022-10-31T23:53:48.859Z,6.95
2022-10-31T23:56:15.974Z,6.93
2022-10-31T23:58:43.042Z,7.00
